Campos Sales, Brazil
Current Conditions -  °F | °C
As of 2:00 PM on Thursday 27 Nov 2014 (Local Time) from SBJU Reporting Station
Scattered Clouds Scattered Clouds  
Wind Chill: 95°   Ceiling: Unl
Heat Index: 96°   Visibility: 6mi
Dew Point: 63°   Wind: 6mph
Humidity: 34%   Direction: 100°E
Pressure: 29.91"   Gusts: NA
Location:  7.07°S, 40.38°W
Report Text: SBJU 271700Z 10005KT 9999 SCT022 35/17 Q1013
Loading
Personal Weather Stations






























Interactive Weather Map New forecast layout! Learn more

10-Day Weather Forecast

Advertisements
Track Severe Weather on mobile